createdAt,value
2019-05-22T00:00:13.912Z,614.6
2019-05-22T00:01:16.114Z,614.3
2019-05-22T00:02:18.547Z,614.1
2019-05-22T00:03:20.973Z,614.3
2019-05-22T00:04:23.134Z,613.9
2019-05-22T00:05:25.299Z,614.3
2019-05-22T00:06:27.735Z,613.6
2019-05-22T00:07:29.877Z,613.9
2019-05-22T00:08:32.406Z,614
2019-05-22T00:09:34.556Z,614
2019-05-22T00:10:36.729Z,613.9
2019-05-22T00:11:39.154Z,613.5
2019-05-22T00:13:46.299Z,613.9
2019-05-22T00:14:48.739Z,614.2
2019-05-22T00:15:50.628Z,613.8
2019-05-22T00:16:52.491Z,613.5
2019-05-22T00:17:54.654Z,613.8
2019-05-22T00:18:57.079Z,613.9
2019-05-22T00:19:58.963Z,613.8
2019-05-22T00:21:01.503Z,614.1
2019-05-22T00:22:03.691Z,613.6
2019-05-22T00:23:06.189Z,613.6
2019-05-22T00:24:08.720Z,613.9
2019-05-22T00:25:11.151Z,613.6
2019-05-22T00:26:13.296Z,613.8
2019-05-22T00:27:15.194Z,613.7
2019-05-22T00:28:17.344Z,613.5
2019-05-22T00:29:19.786Z,613.7
2019-05-22T00:30:22.220Z,613.5
2019-05-22T00:31:24.387Z,613.1
2019-05-22T00:32:26.546Z,613.2
2019-05-22T00:33:28.677Z,613.2
2019-05-22T00:34:30.827Z,613.4
2019-05-22T00:35:32.977Z,613.6
2019-05-22T00:36:35.407Z,613.7
2019-05-22T00:37:37.839Z,613.3
2019-05-22T00:38:39.967Z,613.7
2019-05-22T00:39:42.141Z,613.3
2019-05-22T00:40:44.339Z,613.4
2019-05-22T00:41:46.772Z,613.2
2019-05-22T00:43:54.206Z,613.7
2019-05-22T00:44:56.645Z,612.9
2019-05-22T00:45:58.879Z,613.4
2019-05-22T00:47:01.328Z,613.4
2019-05-22T00:48:03.217Z,613.4
2019-05-22T00:49:05.987Z,613.4
2019-05-22T00:50:08.429Z,613
2019-05-22T00:51:10.588Z,612.9
2019-05-22T00:52:12.748Z,612.6
2019-05-22T00:53:14.907Z,612.8
2019-05-22T00:54:17.530Z,612.7
2019-05-22T00:55:19.997Z,612.2
2019-05-22T00:56:22.436Z,612.1
2019-05-22T00:57:24.905Z,612.2
2019-05-22T00:58:41.725Z,612.1
2019-05-22T00:59:43.913Z,612.3
2019-05-22T01:00:46.119Z,612.2
2019-05-22T01:01:48.293Z,612.4
2019-05-22T01:02:51.348Z,611.7
2019-05-22T01:03:53.784Z,611.9
2019-05-22T01:04:56.208Z,612.2
2019-05-22T01:05:58.363Z,611.9
2019-05-22T01:07:00.555Z,611.5
2019-05-22T01:08:02.439Z,612.1
2019-05-22T01:09:04.586Z,611.9
2019-05-22T01:10:08.295Z,611.7
2019-05-22T01:11:10.744Z,611.7
2019-05-22T01:12:13.335Z,611.9
2019-05-22T01:13:15.786Z,611.9
2019-05-22T01:14:17.942Z,612
2019-05-22T01:15:20.112Z,611.8
2019-05-22T01:16:22.553Z,612.3
2019-05-22T01:17:23.899Z,611.9
2019-05-22T01:18:26.317Z,611.5
2019-05-22T01:19:28.471Z,611.7
2019-05-22T01:20:30.646Z,611.8
2019-05-22T01:21:32.553Z,611.7
2019-05-22T01:22:34.998Z,611.8
2019-05-22T01:23:36.888Z,611.5
2019-05-22T01:24:39.318Z,611.4
2019-05-22T01:25:41.753Z,611.8
2019-05-22T01:26:43.937Z,611.6
2019-05-22T01:27:46.117Z,611.6
2019-05-22T01:28:48.266Z,611.4
2019-05-22T01:29:50.410Z,611.2
2019-05-22T01:30:52.851Z,611.8
2019-05-22T01:31:55.285Z,611.5
2019-05-22T01:32:57.442Z,611.6
2019-05-22T01:33:59.879Z,611.6
2019-05-22T01:35:02.318Z,611.6
2019-05-22T01:36:04.468Z,611.6
2019-05-22T01:37:06.919Z,611.6
2019-05-22T01:38:09.071Z,611.6
2019-05-22T01:39:11.494Z,611.8
2019-05-22T01:40:13.929Z,611.2
2019-05-22T01:41:16.358Z,611.2
2019-05-22T01:42:18.785Z,611.2
2019-05-22T01:43:21.220Z,611.4
2019-05-22T01:44:23.113Z,611.4
2019-05-22T01:45:25.590Z,611
2019-05-22T01:46:27.510Z,611.4
2019-05-22T01:47:30.149Z,611.4
2019-05-22T01:48:32.298Z,611.4
2019-05-22T01:49:34.404Z,611.1
2019-05-22T01:50:36.846Z,611.2
2019-05-22T01:51:38.999Z,611
2019-05-22T01:52:40.883Z,611.1
2019-05-22T01:53:43.038Z,610.8
2019-05-22T01:54:44.929Z,610.7
2019-05-22T01:55:47.373Z,610.7
2019-05-22T01:56:49.545Z,610.7
2019-05-22T01:57:51.699Z,610.9
2019-05-22T01:58:53.573Z,610.7
2019-05-22T01:59:56.006Z,610.3
2019-05-22T02:00:58.178Z,610.6
2019-05-22T02:02:00.323Z,610.6
2019-05-22T02:03:02.822Z,610.4
2019-05-22T02:04:04.989Z,610.4
2019-05-22T02:05:06.878Z,610.5
2019-05-22T02:06:09.295Z,610.4
2019-05-22T02:07:11.448Z,610.9
2019-05-22T02:08:13.877Z,610.7
2019-05-22T02:09:15.753Z,610.4
2019-05-22T02:10:18.179Z,610.1
2019-05-22T02:11:20.047Z,610.3
2019-05-22T02:12:22.531Z,610.1
2019-05-22T02:13:24.964Z,610.4
2019-05-22T02:14:27.467Z,609.8
2019-05-22T02:15:29.897Z,610.2
2019-05-22T02:16:32.335Z,610.1
2019-05-22T02:17:34.752Z,610.1
2019-05-22T02:18:37.186Z,609.8
2019-05-22T02:19:39.929Z,610.1
2019-05-22T02:20:42.134Z,610.2
2019-05-22T02:21:44.283Z,610.4
2019-05-22T02:22:46.157Z,610.2
2019-05-22T02:23:48.322Z,610.3
2019-05-22T02:24:50.213Z,610.1
2019-05-22T02:25:52.367Z,610.3
2019-05-22T02:26:54.543Z,610.2
2019-05-22T02:27:56.674Z,609.8
2019-05-22T02:28:58.828Z,610.2
2019-05-22T02:30:00.986Z,610.1
2019-05-22T02:31:03.443Z,609.6
2019-05-22T02:32:05.597Z,610
2019-05-22T02:33:07.496Z,609.9
2019-05-22T02:34:09.943Z,609.6
2019-05-22T02:35:12.376Z,609.4
2019-05-22T02:36:14.801Z,609.7
2019-05-22T02:37:16.935Z,609.8
2019-05-22T02:38:19.369Z,609.6
2019-05-22T02:39:21.805Z,609.8
2019-05-22T02:40:24.577Z,609.1
2019-05-22T02:41:27.001Z,609.8
2019-05-22T02:42:29.445Z,609.4
2019-05-22T02:43:31.879Z,609.4
2019-05-22T02:44:34.319Z,609.4
2019-05-22T02:45:36.764Z,609.7
2019-05-22T02:46:38.957Z,609.7
2019-05-22T02:47:41.078Z,609
2019-05-22T02:48:44.166Z,609.3
2019-05-22T02:49:46.605Z,609.1
2019-05-22T02:50:48.759Z,609.3
2019-05-22T02:51:51.182Z,609.2
2019-05-22T02:52:52.786Z,609.3
2019-05-22T02:53:55.211Z,609.2
2019-05-22T02:54:57.390Z,608.8
2019-05-22T02:55:59.816Z,609
2019-05-22T02:57:02.312Z,608.5
2019-05-22T02:58:04.547Z,609
2019-05-22T02:59:06.408Z,608.8
2019-05-22T03:00:08.849Z,608.8
2019-05-22T03:01:11.344Z,608.7
2019-05-22T03:02:13.515Z,608.6
2019-05-22T03:03:15.947Z,608.7
2019-05-22T03:04:18.114Z,608.9
2019-05-22T03:05:20.582Z,608.5
2019-05-22T03:06:23.121Z,608.5
2019-05-22T03:07:25.006Z,608.3
2019-05-22T03:08:27.174Z,608
2019-05-22T03:09:29.326Z,608.2
2019-05-22T03:10:31.507Z,607.9
2019-05-22T03:12:39.571Z,607.7
2019-05-22T03:13:41.997Z,607.5
2019-05-22T03:14:44.135Z,607.3
2019-05-22T03:15:46.574Z,607.2
2019-05-22T03:16:49.027Z,607.1
2019-05-22T03:17:51.247Z,607.3
2019-05-22T03:19:58.377Z,607.2
2019-05-22T03:21:00.819Z,607.2
2019-05-22T03:22:03.247Z,607.4
2019-05-22T03:23:05.703Z,607.5
2019-05-22T03:24:07.595Z,607.7
2019-05-22T03:25:10.019Z,607.3
2019-05-22T03:26:12.669Z,607.6
2019-05-22T03:27:14.843Z,607.2
2019-05-22T03:28:17.293Z,607.3
2019-05-22T03:29:19.723Z,607
2019-05-22T03:30:22.521Z,607.3
2019-05-22T03:31:24.801Z,606.4
2019-05-22T03:32:27.251Z,606.7
2019-05-22T03:33:29.731Z,606.5
2019-05-22T03:34:31.868Z,606.7
2019-05-22T03:35:34.656Z,606.3
2019-05-22T03:36:36.815Z,606.8
2019-05-22T03:37:38.969Z,607
2019-05-22T03:38:40.883Z,606.9
2019-05-22T03:39:43.302Z,606.5
2019-05-22T03:40:45.451Z,606.5
2019-05-22T03:41:47.694Z,606.6
2019-05-22T03:42:49.853Z,606.6
2019-05-22T03:43:51.745Z,606.6
2019-05-22T03:44:53.634Z,606.3
2019-05-22T03:45:56.071Z,606.7
2019-05-22T03:48:03.685Z,605.8
2019-05-22T03:49:06.666Z,606
2019-05-22T03:50:08.843Z,606.3
2019-05-22T03:51:11.285Z,606.1
2019-05-22T03:52:13.722Z,606.1
2019-05-22T03:53:16.152Z,606.2
2019-05-22T03:54:18.594Z,606.1
2019-05-22T03:55:21.044Z,606
2019-05-22T03:56:23.208Z,606
2019-05-22T03:57:25.646Z,605.7
2019-05-22T03:58:27.603Z,605.6
2019-05-22T03:59:30.037Z,605.5
2019-05-22T04:00:32.468Z,605
2019-05-22T04:01:34.889Z,605.1
2019-05-22T04:02:37.350Z,605.5
2019-05-22T04:03:39.789Z,605
2019-05-22T04:04:42.236Z,605
2019-05-22T04:05:44.670Z,604.9
2019-05-22T04:06:47.094Z,604.8
2019-05-22T04:07:49.528Z,604.7
2019-05-22T04:08:51.399Z,605.1
2019-05-22T04:09:53.867Z,604.9
2019-05-22T04:10:56.385Z,604.5
2019-05-22T04:11:58.818Z,604.5
2019-05-22T04:13:01.176Z,604
2019-05-22T04:14:03.606Z,604.3
2019-05-22T04:15:05.748Z,604.4
2019-05-22T04:16:08.184Z,604
2019-05-22T04:17:10.677Z,604.1
2019-05-22T04:18:12.999Z,603.9
2019-05-22T04:19:15.403Z,603.9
2019-05-22T04:20:17.836Z,603.5
2019-05-22T04:21:20.180Z,603.2
2019-05-22T04:22:22.605Z,603.4
2019-05-22T04:23:25.045Z,603.5
2019-05-22T04:24:27.485Z,603.5
2019-05-22T04:25:29.656Z,603.4
2019-05-22T04:26:32.264Z,603.6
2019-05-22T04:27:34.763Z,603.1
2019-05-22T04:28:36.901Z,603.2
2019-05-22T04:29:39.598Z,603
2019-05-22T04:30:41.573Z,603.2
2019-05-22T04:31:44.614Z,603
2019-05-22T04:32:46.784Z,603
2019-05-22T04:33:49.209Z,603
2019-05-22T04:34:51.358Z,603
2019-05-22T04:35:53.503Z,603.1
2019-05-22T04:36:55.677Z,603
2019-05-22T04:37:57.859Z,602.7
2019-05-22T04:39:00.499Z,602.6
2019-05-22T04:40:03.136Z,602.9
2019-05-22T04:41:05.558Z,602.5
2019-05-22T04:42:07.686Z,603
2019-05-22T04:43:10.114Z,602.8
2019-05-22T04:44:11.976Z,602.6
2019-05-22T04:45:14.957Z,602.5
2019-05-22T04:46:17.391Z,602.5
2019-05-22T04:47:19.539Z,602.5
2019-05-22T04:48:21.610Z,602.8
2019-05-22T04:49:23.960Z,602.7
2019-05-22T04:50:26.387Z,602.4
2019-05-22T04:51:29.393Z,602.3
2019-05-22T04:52:32.591Z,602.1
2019-05-22T04:53:35.066Z,602.3
2019-05-22T04:54:37.228Z,602.2
2019-05-22T04:55:39.392Z,602
2019-05-22T04:56:41.837Z,601.9
2019-05-22T04:57:44.270Z,601.9
2019-05-22T04:58:46.436Z,601.6
2019-05-22T04:59:48.865Z,602
2019-05-22T05:00:51.313Z,601.9
2019-05-22T05:01:53.186Z,602
2019-05-22T05:02:55.317Z,602
2019-05-22T05:03:57.770Z,602
2019-05-22T05:04:59.962Z,602.2
2019-05-22T05:07:08.920Z,601.8
2019-05-22T05:08:10.804Z,602.1
2019-05-22T05:09:12.402Z,601.7
2019-05-22T05:10:15.443Z,601.7
2019-05-22T05:11:17.869Z,601.7
2019-05-22T05:12:20.450Z,601.6
2019-05-22T05:13:22.941Z,601.6
2019-05-22T05:14:25.887Z,601.8
2019-05-22T05:15:28.323Z,601.4
2019-05-22T05:16:30.171Z,601.4
2019-05-22T05:17:32.316Z,601.8
2019-05-22T05:18:34.747Z,601.8
2019-05-22T05:19:37.186Z,601.5
2019-05-22T05:20:39.613Z,601.7
2019-05-22T05:21:41.759Z,601.8
2019-05-22T05:22:44.343Z,601.9
2019-05-22T05:23:46.295Z,601.6
2019-05-22T05:24:48.465Z,601.2
2019-05-22T05:25:50.914Z,601.7
2019-05-22T05:26:53.381Z,601.3
2019-05-22T05:27:55.833Z,601.2
2019-05-22T05:28:58.275Z,601.2
2019-05-22T05:30:00.721Z,601.3
2019-05-22T05:31:03.312Z,601
2019-05-22T05:32:05.505Z,600.8
2019-05-22T05:33:07.679Z,600.8
2019-05-22T05:34:10.169Z,600.3
2019-05-22T05:35:12.602Z,599.9
2019-05-22T05:36:14.759Z,600.4
2019-05-22T05:37:17.172Z,599.9
2019-05-22T05:38:19.740Z,600.1
2019-05-22T05:39:21.901Z,599.7
2019-05-22T05:40:24.332Z,600.3
2019-05-22T05:41:26.756Z,599.9
2019-05-22T05:42:29.196Z,600.6
2019-05-22T05:43:31.372Z,600.1
2019-05-22T05:44:32.997Z,599.8
2019-05-22T05:45:35.439Z,600.1
2019-05-22T05:46:37.879Z,599.3
2019-05-22T05:47:40.307Z,599.6
2019-05-22T05:48:42.474Z,599.4
2019-05-22T05:49:44.919Z,599.4
2019-05-22T05:50:46.805Z,599.2
2019-05-22T05:51:49.254Z,598.9
2019-05-22T05:52:51.675Z,599
2019-05-22T05:53:53.860Z,599
2019-05-22T05:54:56.283Z,598.9
2019-05-22T05:55:58.443Z,598.8
2019-05-22T05:57:00.882Z,598.7
2019-05-22T05:58:03.251Z,598.7
2019-05-22T05:59:06.032Z,598.2
2019-05-22T06:00:08.227Z,598.1
2019-05-22T06:01:10.484Z,598.3
2019-05-22T06:02:13.112Z,598.1
2019-05-22T06:03:16.139Z,598.1
2019-05-22T06:05:25.971Z,598
2019-05-22T06:06:28.415Z,597.6
2019-05-22T06:07:30.845Z,597.9
2019-05-22T06:08:33.301Z,597.7
2019-05-22T06:09:35.838Z,597.7
2019-05-22T06:10:38.271Z,597.4
2019-05-22T06:11:40.719Z,597.1
2019-05-22T06:12:43.153Z,597.8
2019-05-22T06:13:45.663Z,597.3
2019-05-22T06:14:48.099Z,597.5
2019-05-22T06:15:50.517Z,597
2019-05-22T06:16:53.140Z,597.3
2019-05-22T06:17:56.619Z,597.2
2019-05-22T06:18:59.266Z,596.8
2019-05-22T06:20:01.479Z,596.9
2019-05-22T06:22:08.891Z,597
2019-05-22T06:23:11.076Z,596.7
2019-05-22T06:24:13.220Z,596.7
2019-05-22T06:25:15.764Z,596.7
2019-05-22T06:26:18.189Z,596.5
2019-05-22T06:27:20.719Z,596.2
2019-05-22T06:28:23.148Z,596.6
2019-05-22T06:30:30.567Z,596.1
2019-05-22T06:31:32.792Z,596.5
2019-05-22T06:32:35.247Z,596.2
2019-05-22T06:33:37.671Z,596.3
2019-05-22T06:34:40.105Z,595.7
2019-05-22T06:35:42.531Z,595.8
2019-05-22T06:36:44.952Z,595.9
2019-05-22T06:37:47.375Z,595.4
2019-05-22T06:38:49.799Z,595.7
2019-05-22T06:39:52.235Z,595.7
2019-05-22T06:40:54.673Z,595
2019-05-22T06:41:57.079Z,594.8
2019-05-22T06:42:59.506Z,594.7
2019-05-22T06:44:01.937Z,594.7
2019-05-22T06:45:07.027Z,595
2019-05-22T06:46:09.473Z,595.1
2019-05-22T06:47:11.914Z,594.9
2019-05-22T06:48:14.365Z,595
2019-05-22T06:49:16.542Z,594.9
2019-05-22T06:50:18.701Z,595
2019-05-22T06:51:21.806Z,594.8
2019-05-22T06:52:23.967Z,595
2019-05-22T06:53:26.129Z,594.6
2019-05-22T06:54:28.579Z,594.7
2019-05-22T06:55:30.478Z,594.5
2019-05-22T06:56:32.928Z,594.7
2019-05-22T06:57:35.623Z,594.5
2019-05-22T06:58:37.791Z,594.5
2019-05-22T06:59:39.973Z,594.4
2019-05-22T07:00:41.849Z,594.6
2019-05-22T07:01:43.996Z,594.6
2019-05-22T07:02:46.440Z,594.5
2019-05-22T07:03:48.595Z,594.7
2019-05-22T07:04:51.208Z,594.6
2019-05-22T07:05:53.656Z,594.7
2019-05-22T07:06:56.369Z,594.9
2019-05-22T07:07:58.814Z,594.6
2019-05-22T07:09:00.977Z,594.5
2019-05-22T07:10:03.576Z,594.2
2019-05-22T07:11:06.052Z,594.3
2019-05-22T07:12:07.935Z,594.4
2019-05-22T07:13:10.084Z,594.4
2019-05-22T07:14:12.605Z,594.4
2019-05-22T07:15:15.036Z,594.1
2019-05-22T07:16:17.490Z,594.2
2019-05-22T07:17:19.941Z,594
2019-05-22T07:18:22.115Z,593.8
2019-05-22T07:19:24.272Z,593.9
2019-05-22T07:20:26.434Z,594.1
2019-05-22T07:22:33.872Z,593.6
2019-05-22T07:23:36.305Z,593.3
2019-05-22T07:24:39.135Z,593.7
2019-05-22T07:25:41.346Z,593.7
2019-05-22T07:26:43.802Z,593.4
2019-05-22T07:27:46.232Z,593.1
2019-05-22T07:28:48.153Z,593.2
2019-05-22T07:29:50.588Z,593.1
2019-05-22T07:30:53.065Z,593.2
2019-05-22T07:31:55.246Z,592.9
2019-05-22T07:32:57.412Z,592.7
2019-05-22T07:33:59.824Z,592.5
2019-05-22T07:35:02.314Z,593.1
2019-05-22T07:37:09.724Z,592.6
2019-05-22T07:38:12.193Z,592.8
2019-05-22T07:39:14.631Z,592.7
2019-05-22T07:40:18.524Z,592.8
2019-05-22T07:41:21.376Z,592.7
2019-05-22T07:42:23.531Z,592.6
2019-05-22T07:43:25.964Z,592.7
2019-05-22T07:44:28.411Z,592.5
2019-05-22T07:45:30.570Z,592.5
2019-05-22T07:46:33.032Z,592.5
2019-05-22T07:47:35.472Z,592.6
2019-05-22T07:48:37.638Z,592.4
2019-05-22T07:49:39.783Z,592.1
2019-05-22T07:50:42.341Z,592.4
2019-05-22T07:52:49.551Z,592.6
2019-05-22T07:53:51.985Z,592.5
2019-05-22T07:54:54.192Z,592.9
2019-05-22T07:55:56.963Z,592.6
2019-05-22T07:56:58.834Z,592.9
2019-05-22T07:58:00.996Z,593
2019-05-22T07:59:03.166Z,593
2019-05-22T08:00:05.032Z,593.1
2019-05-22T08:01:07.483Z,592.6
2019-05-22T08:02:09.634Z,592.9
2019-05-22T08:03:11.581Z,593.1
2019-05-22T08:04:14.004Z,593
2019-05-22T08:05:16.441Z,592.7
2019-05-22T08:06:18.880Z,593.2
2019-05-22T08:07:21.307Z,592.7
2019-05-22T08:08:23.468Z,592.8
2019-05-22T08:09:25.973Z,593.2
2019-05-22T08:10:28.188Z,592.8
2019-05-22T08:11:30.684Z,592.6
2019-05-22T08:12:33.140Z,593
2019-05-22T08:13:35.586Z,592.9
2019-05-22T08:14:38.017Z,592.9
2019-05-22T08:15:40.484Z,593.1
2019-05-22T08:16:42.941Z,592.9
2019-05-22T08:17:45.127Z,592.7
2019-05-22T08:18:47.610Z,592.8
2019-05-22T08:19:50.027Z,592.9
2019-05-22T08:20:52.460Z,592.6
2019-05-22T08:22:59.315Z,592.2
2019-05-22T08:24:01.813Z,592.2
2019-05-22T08:25:04.246Z,592.1
2019-05-22T08:26:06.685Z,592.5
2019-05-22T08:27:08.856Z,592.5
2019-05-22T08:28:11.284Z,592.6
2019-05-22T08:29:13.452Z,592.7
2019-05-22T08:30:15.921Z,592.8
2019-05-22T08:31:18.354Z,592.8
2019-05-22T08:32:20.776Z,593
2019-05-22T08:33:23.208Z,592.9
2019-05-22T08:34:25.378Z,593.1
2019-05-22T08:35:27.802Z,593.1
2019-05-22T08:36:30.244Z,592.8
2019-05-22T08:37:32.390Z,593
2019-05-22T08:38:34.593Z,592.7
2019-05-22T08:39:37.016Z,593.2
2019-05-22T08:40:39.468Z,593.2
2019-05-22T08:41:41.634Z,592.9
2019-05-22T08:42:44.079Z,593.1
2019-05-22T08:44:50.924Z,592.4
2019-05-22T08:45:53.499Z,592.2
2019-05-22T08:46:55.949Z,592.1
2019-05-22T08:47:58.600Z,592
2019-05-22T08:49:00.544Z,592.2
2019-05-22T08:50:03.440Z,592
2019-05-22T08:51:05.756Z,591.8
2019-05-22T08:53:13.230Z,592
2019-05-22T08:54:15.677Z,591.5
2019-05-22T08:55:18.115Z,591.4
2019-05-22T08:56:20.565Z,591.7
2019-05-22T08:57:23.290Z,591.4
2019-05-22T08:58:25.793Z,591.5
2019-05-22T08:59:28.245Z,591.6
2019-05-22T09:00:30.671Z,591.6
2019-05-22T09:01:33.108Z,590.9
2019-05-22T09:02:35.565Z,591
2019-05-22T09:03:37.738Z,590.7
2019-05-22T09:04:40.166Z,590.8
2019-05-22T09:05:42.314Z,590.5
2019-05-22T09:06:44.733Z,590.5
2019-05-22T09:07:46.914Z,590.6
2019-05-22T09:08:49.046Z,590.2
2019-05-22T09:09:50.928Z,589.3
2019-05-22T09:10:53.090Z,589.8
2019-05-22T09:11:55.522Z,590.2
2019-05-22T09:12:57.962Z,590.1
2019-05-22T09:14:00.395Z,589.4
2019-05-22T09:15:02.577Z,589.6
2019-05-22T09:16:05.024Z,589.9
2019-05-22T09:17:07.368Z,589.6
2019-05-22T09:18:09.796Z,589.5
2019-05-22T09:19:13.340Z,589.3
2019-05-22T09:20:15.387Z,589.1
2019-05-22T09:21:17.598Z,588.8
2019-05-22T09:22:20.029Z,589.4
2019-05-22T09:23:22.454Z,589
2019-05-22T09:24:24.887Z,589.1
2019-05-22T09:25:27.087Z,588.6
2019-05-22T09:26:29.519Z,589.2
2019-05-22T09:27:31.143Z,589
2019-05-22T09:28:33.622Z,588.7
2019-05-22T09:29:35.779Z,588.8
2019-05-22T09:30:37.928Z,588.6
2019-05-22T09:31:40.632Z,588.8
2019-05-22T09:32:43.053Z,588.8
2019-05-22T09:33:45.512Z,588.8
2019-05-22T09:34:47.137Z,588.6
2019-05-22T09:35:49.586Z,588.8
2019-05-22T09:36:52.107Z,588.6
2019-05-22T09:37:54.616Z,588.4
2019-05-22T09:38:56.779Z,588.7
2019-05-22T09:39:58.944Z,588.7
2019-05-22T09:41:01.372Z,588.2
2019-05-22T09:42:03.601Z,587.9
2019-05-22T09:43:06.037Z,587.6
2019-05-22T09:44:08.468Z,587.9
2019-05-22T09:45:10.895Z,587.8
2019-05-22T09:46:13.328Z,587.7
2019-05-22T09:47:15.739Z,587.6
2019-05-22T09:48:17.633Z,587.4
2019-05-22T09:50:26.269Z,587.5
2019-05-22T09:51:28.775Z,587.6
2019-05-22T09:52:30.946Z,587.2
2019-05-22T09:53:33.384Z,587.1
2019-05-22T09:54:35.816Z,587.1
2019-05-22T09:55:38.274Z,587.2
2019-05-22T09:56:40.432Z,587.1
2019-05-22T09:57:42.864Z,587.2
2019-05-22T09:58:45.008Z,586.7
2019-05-22T09:59:47.436Z,587
2019-05-22T10:00:49.897Z,586.8
2019-05-22T10:01:52.322Z,587.2
2019-05-22T10:02:54.170Z,586.4
2019-05-22T10:03:56.336Z,586.8
2019-05-22T10:04:58.213Z,586.9
2019-05-22T10:06:01.332Z,587.3
2019-05-22T10:07:03.865Z,587
2019-05-22T10:08:06.300Z,587
2019-05-22T10:09:08.722Z,587.1
2019-05-22T10:10:11.207Z,587
2019-05-22T10:11:13.627Z,587.1
2019-05-22T10:12:15.782Z,587.2
2019-05-22T10:13:18.277Z,587.3
2019-05-22T10:14:20.762Z,587
2019-05-22T10:15:23.565Z,587.3
2019-05-22T10:16:26.288Z,587
2019-05-22T10:17:28.496Z,587.4
2019-05-22T10:18:30.716Z,587.2
2019-05-22T10:19:33.218Z,587.3
2019-05-22T10:20:35.695Z,587.2
2019-05-22T10:21:38.305Z,587.6
2019-05-22T10:22:40.458Z,587.2
2019-05-22T10:23:42.593Z,587.3
2019-05-22T10:24:44.468Z,586.9
2019-05-22T10:25:46.891Z,586.8
2019-05-22T10:26:49.322Z,587
2019-05-22T10:27:51.511Z,586.7
2019-05-22T10:28:53.987Z,586.6
2019-05-22T10:29:56.411Z,587
2019-05-22T10:31:02.191Z,586.5
2019-05-22T10:32:04.570Z,586.1
2019-05-22T10:33:07.014Z,585.8
2019-05-22T10:34:09.446Z,585.8
2019-05-22T10:35:11.582Z,585.9
2019-05-22T10:36:14.062Z,585.9
2019-05-22T10:37:16.496Z,585.4
2019-05-22T10:38:18.977Z,585.7
2019-05-22T10:39:24.546Z,585.8
2019-05-22T10:40:28.053Z,586
2019-05-22T10:41:29.985Z,585.9
2019-05-22T10:42:32.425Z,585.8
2019-05-22T10:43:34.312Z,585.8
2019-05-22T10:44:36.441Z,586.1
2019-05-22T10:45:38.598Z,585.6
2019-05-22T10:46:41.032Z,585.6
2019-05-22T10:47:43.471Z,586.2
2019-05-22T10:48:46.534Z,585.6
2019-05-22T10:49:48.674Z,585.7
2019-05-22T10:50:51.106Z,585.8
2019-05-22T10:51:53.530Z,585.4
2019-05-22T10:52:56.811Z,585.8
2019-05-22T10:53:59.244Z,585.6
2019-05-22T10:55:01.668Z,585.6
2019-05-22T10:56:04.201Z,585.6
2019-05-22T10:57:06.628Z,585.5
2019-05-22T10:58:09.255Z,585.8
2019-05-22T10:59:11.412Z,585.5
2019-05-22T11:00:13.589Z,585.7
2019-05-22T11:01:16.068Z,585.8
2019-05-22T11:02:17.956Z,585.8
2019-05-22T11:03:20.397Z,585.7
2019-05-22T11:04:22.847Z,585.4
2019-05-22T11:05:25.323Z,585.6
2019-05-22T11:06:27.749Z,585.2
2019-05-22T11:07:30.182Z,585
2019-05-22T11:09:37.801Z,585.4
2019-05-22T11:10:39.962Z,585
2019-05-22T11:11:42.114Z,584.6
2019-05-22T11:12:43.996Z,584.8
2019-05-22T11:14:52.028Z,584.6
2019-05-22T11:15:53.968Z,584.6
2019-05-22T11:16:56.392Z,584.5
2019-05-22T11:17:58.270Z,584.4
2019-05-22T11:19:00.724Z,584.6
2019-05-22T11:20:03.159Z,584.6
2019-05-22T11:21:06.137Z,584.3
2019-05-22T11:22:09.325Z,584.5
2019-05-22T11:23:11.743Z,584.5
2019-05-22T11:24:13.878Z,584.3
2019-05-22T11:25:16.304Z,584.4
2019-05-22T11:26:18.727Z,584.4
2019-05-22T11:27:20.927Z,584.5
2019-05-22T11:28:23.382Z,584.6
2019-05-22T11:29:25.848Z,584.7
2019-05-22T11:30:27.987Z,584.6
2019-05-22T11:31:30.486Z,584.7
2019-05-22T11:32:32.672Z,584.5
2019-05-22T11:33:36.374Z,584.5
2019-05-22T11:34:38.808Z,584.5
2019-05-22T11:35:41.005Z,584.5
2019-05-22T11:36:43.447Z,584.5
2019-05-22T11:37:45.986Z,585.2
2019-05-22T11:38:48.132Z,584.8
2019-05-22T11:39:50.335Z,584.7
2019-05-22T11:40:52.472Z,584.6
2019-05-22T11:41:54.894Z,584.8
2019-05-22T11:42:57.056Z,584.8
2019-05-22T11:43:59.498Z,584.8
2019-05-22T11:45:01.978Z,584.8
2019-05-22T11:46:04.175Z,584.6
2019-05-22T11:47:06.424Z,584.5
2019-05-22T11:48:08.857Z,584.4
2019-05-22T11:49:11.381Z,584.9
2019-05-22T11:50:13.564Z,584.7
2019-05-22T11:51:15.719Z,584.6
2019-05-22T11:52:17.862Z,584.8
2019-05-22T11:53:20.303Z,584.2
2019-05-22T11:54:22.724Z,584.9
2019-05-22T11:56:29.866Z,584.4
2019-05-22T11:57:32.311Z,584.6
2019-05-22T11:58:34.459Z,584
2019-05-22T11:59:36.436Z,583.9
2019-05-22T12:00:38.886Z,583.6
2019-05-22T12:01:41.317Z,583.5
2019-05-22T12:02:43.473Z,583.8
2019-05-22T12:03:46.516Z,583.3
2019-05-22T12:04:50.533Z,583.4
2019-05-22T12:05:52.965Z,583.3
2019-05-22T12:06:56.034Z,583.5
2019-05-22T12:07:58.405Z,583.4
2019-05-22T12:09:00.841Z,583.1
2019-05-22T12:10:02.723Z,583.2
2019-05-22T12:11:05.355Z,583.6
2019-05-22T12:12:07.778Z,583.6
2019-05-22T12:13:11.987Z,583.7
2019-05-22T12:14:14.554Z,583.5
2019-05-22T12:15:17.033Z,583.3
2019-05-22T12:16:19.514Z,583.9
2019-05-22T12:18:27.215Z,583.9
2019-05-22T12:19:29.753Z,583.6
2019-05-22T12:20:32.184Z,583.9
2019-05-22T12:21:34.624Z,583.7
2019-05-22T12:22:37.062Z,583.7
2019-05-22T12:23:39.495Z,583.9
2019-05-22T12:24:41.928Z,583.7
2019-05-22T12:25:44.058Z,583.6
2019-05-22T12:26:46.214Z,583.8
2019-05-22T12:27:48.925Z,583.7
2019-05-22T12:28:51.362Z,583.7
2019-05-22T12:29:54.605Z,583.6
2019-05-22T12:30:57.044Z,583.4
2019-05-22T12:31:59.728Z,583.4
2019-05-22T12:33:02.102Z,583.5
2019-05-22T12:34:04.525Z,583.4
2019-05-22T12:35:06.959Z,583.4
2019-05-22T12:36:09.420Z,583.2
2019-05-22T12:37:11.876Z,583.6
2019-05-22T12:38:13.772Z,583.6
2019-05-22T12:39:16.276Z,583.5
2019-05-22T12:40:18.704Z,583.4
2019-05-22T12:41:20.325Z,583.7
2019-05-22T12:42:22.750Z,583.7
2019-05-22T12:43:25.175Z,583.5
2019-05-22T12:44:27.844Z,584
2019-05-22T12:45:30.272Z,583.6
2019-05-22T12:46:32.708Z,583.4
2019-05-22T12:47:34.855Z,583.7
2019-05-22T12:48:37.002Z,583.6
2019-05-22T12:49:39.444Z,583.3
2019-05-22T12:50:41.677Z,583.4
2019-05-22T12:51:44.164Z,583.6
2019-05-22T12:52:46.600Z,583.6
2019-05-22T12:53:49.161Z,584.2
2019-05-22T12:55:56.564Z,583.7
2019-05-22T12:56:58.452Z,584
2019-05-22T12:58:00.915Z,583.9
2019-05-22T12:59:03.354Z,583.8
2019-05-22T13:00:05.625Z,583.9
2019-05-22T13:01:08.059Z,584.1
2019-05-22T13:02:10.227Z,584.2
2019-05-22T13:03:12.669Z,584
2019-05-22T13:04:14.838Z,584.2
2019-05-22T13:05:17.074Z,583.8
2019-05-22T13:06:19.136Z,583.8
2019-05-22T13:07:21.726Z,584.2
2019-05-22T13:08:24.153Z,584
2019-05-22T13:09:26.055Z,584
2019-05-22T13:10:28.547Z,583.5
2019-05-22T13:11:30.975Z,583.9
2019-05-22T13:12:33.671Z,584.1
2019-05-22T13:13:36.095Z,584.2
2019-05-22T13:14:38.296Z,584.2
2019-05-22T13:15:40.522Z,583.8
2019-05-22T13:17:47.404Z,583.9
2019-05-22T13:18:49.348Z,584.1
2019-05-22T13:19:52.038Z,584.5
2019-05-22T13:20:54.803Z,584.6
2019-05-22T13:21:57.240Z,584.4
2019-05-22T13:23:00.423Z,584.3
2019-05-22T13:24:02.866Z,584.2
2019-05-22T13:25:05.904Z,584
2019-05-22T13:26:08.159Z,584.1
2019-05-22T13:27:10.575Z,583.6
2019-05-22T13:28:13.005Z,584.1
2019-05-22T13:29:15.438Z,583.7
2019-05-22T13:30:17.868Z,583.9
2019-05-22T13:31:20.299Z,583.6
2019-05-22T13:32:22.738Z,583.9
2019-05-22T13:33:25.218Z,583.4
2019-05-22T13:34:27.647Z,583.6
2019-05-22T13:35:30.116Z,583
2019-05-22T13:36:32.560Z,583.3
2019-05-22T13:37:34.999Z,583.4
2019-05-22T13:38:37.352Z,582.9
2019-05-22T13:39:39.223Z,583.3
2019-05-22T13:40:41.756Z,583.5
2019-05-22T13:41:43.634Z,583.5
2019-05-22T13:42:45.526Z,583.5
2019-05-22T13:43:47.664Z,583.2
2019-05-22T13:44:49.561Z,583.5
2019-05-22T13:45:51.977Z,583.2
2019-05-22T13:46:54.151Z,583.3
2019-05-22T13:47:56.310Z,582.8
2019-05-22T13:48:58.457Z,583
2019-05-22T13:50:00.333Z,582.4
2019-05-22T13:51:02.767Z,582.7
2019-05-22T13:52:05.232Z,582.3